Time;durP1;ratioP1;P1;durP2;ratioP2;P2;SDS_P1;SDS_P2;PMS_P1;PMS_P2;Temp;Humidity;BMP_temperature;BMP_pressure;BME280_temperature;BME280_humidity;BME280_pressure;Samples;Min_cycle;Max_cycle;Signal;HPM_P1;HPM_P2
2022/06/11 00:00:24;;;;;;;4.65;3.00;;;20.70;99.90;;;;;;5061665;28;20465;-74
2022/06/11 00:02:50;;;;;;;4.43;2.63;;;20.60;99.90;;;;;;5053801;28;20021;-74
2022/06/11 00:05:16;;;;;;;5.03;2.80;;;20.60;99.90;;;;;;5053056;28;20059;-74
2022/06/11 00:07:42;;;;;;;5.32;3.30;;;20.60;99.90;;;;;;5053691;28;20497;-74
2022/06/11 00:10:09;;;;;;;6.75;4.10;;;20.50;99.90;;;;;;5056974;28;20060;-72
2022/06/11 00:12:35;;;;;;;7.18;4.07;;;20.40;99.90;;;;;;5050018;28;20039;-74
2022/06/11 00:15:03;;;;;;;7.68;3.30;;;20.40;99.90;;;;;;5053461;28;20079;-74
2022/06/11 00:17:28;;;;;;;8.05;3.50;;;20.40;99.90;;;;;;5048342;28;20025;-74
2022/06/11 00:19:55;;;;;;;9.70;3.38;;;20.30;99.90;;;;;;5052099;28;20090;-74
2022/06/11 00:22:22;;;;;;;8.95;3.97;;;20.30;99.90;;;;;;5046370;28;20024;-74
2022/06/11 00:24:49;;;;;;;7.43;3.50;;;20.30;99.90;;;;;;5052837;28;20025;-74
2022/06/11 00:27:16;;;;;;;7.22;3.65;;;20.20;99.90;;;;;;5047219;28;20017;-74
2022/06/11 00:29:43;;;;;;;8.65;4.32;;;20.20;99.90;;;;;;5052650;28;20040;-74
2022/06/11 00:32:11;;;;;;;6.95;4.00;;;20.20;99.90;;;;;;5047808;28;20484;-74
2022/06/11 00:34:38;;;;;;;8.10;4.43;;;20.20;99.90;;;;;;5050769;28;20025;-74
2022/06/11 00:37:04;;;;;;;10.07;3.80;;;20.10;99.90;;;;;;5052101;28;20021;-72
2022/06/11 00:39:34;;;;;;;8.80;4.03;;;20.10;99.90;;;;;;5052305;28;20027;-73
2022/06/11 00:42:11;;;;;;;11.52;4.03;;;20.10;99.90;;;;;;5059368;28;20531;-74
2022/06/11 00:44:37;;;;;;;8.50;4.63;;;20.10;99.90;;;;;;5052155;28;20401;-72
2022/06/11 00:47:09;;;;;;;7.93;4.40;;;20.00;99.90;;;;;;5047033;28;20075;-74
2022/06/11 00:49:45;;;;;;;8.60;4.43;;;20.00;99.90;;;;;;5056932;28;20469;-73
2022/06/11 00:52:23;;;;;;;7.60;5.20;;;20.00;99.90;;;;;;5054023;28;20063;-73
2022/06/11 00:55:10;;;;;;;7.80;4.30;;;19.90;99.90;;;;;;5058946;28;20047;-74
2022/06/11 00:57:45;;;;;;;10.68;4.90;;;19.90;99.90;;;;;;5058822;28;20232;-74
2022/06/11 01:00:17;;;;;;;9.57;4.22;;;19.80;99.90;;;;;;5053522;28;20108;-74
2022/06/11 01:02:45;;;;;;;13.15;5.10;;;19.80;99.90;;;;;;5049593;28;20381;-74
2022/06/11 01:05:19;;;;;;;7.47;4.65;;;19.80;99.90;;;;;;5052014;28;20017;-74
2022/06/11 01:08:14;;;;;;;10.00;5.20;;;19.80;99.90;;;;;;5044779;28;20112;-74
2022/06/11 01:11:07;;;;;;;12.07;6.03;;;19.70;99.90;;;;;;5055810;28;20060;-74
2022/06/11 01:13:46;;;;;;;9.88;5.00;;;19.70;99.90;;;;;;5050636;28;20120;-73
2022/06/11 01:16:35;;;;;;;10.93;5.30;;;19.70;99.90;;;;;;5052783;28;20103;-74
2022/06/11 01:19:21;;;;;;;9.85;5.88;;;19.70;99.90;;;;;;5050644;28;20025;-74
2022/06/11 01:22:09;;;;;;;8.90;5.05;;;19.70;99.90;;;;;;5054094;28;20049;-74
2022/06/11 01:24:58;;;;;;;10.77;5.30;;;19.70;99.90;;;;;;5048726;28;20021;-74
2022/06/11 01:27:46;;;;;;;8.90;5.13;;;19.60;99.90;;;;;;5055845;28;20169;-74
2022/06/11 01:30:47;;;;;;;11.23;5.25;;;19.60;99.90;;;;;;5053539;28;20044;-74
2022/06/11 01:33:31;;;;;;;12.10;4.88;;;19.60;99.90;;;;;;5058231;28;20098;-74
2022/06/11 01:36:08;;;;;;;10.50;5.20;;;19.60;99.90;;;;;;5049751;28;20039;-74
2022/06/11 01:38:59;;;;;;;11.32;5.30;;;19.60;99.90;;;;;;5053448;28;20029;-74
2022/06/11 01:41:50;;;;;;;6.78;4.85;;;19.60;99.90;;;;;;5050976;28;20028;-73
2022/06/11 01:44:27;;;;;;;7.50;4.63;;;19.60;99.90;;;;;;5052602;28;20091;-74
2022/06/11 01:46:54;;;;;;;9.30;5.28;;;19.60;99.90;;;;;;5054078;28;20355;-74
2022/06/11 01:49:20;;;;;;;11.00;4.88;;;19.50;99.90;;;;;;5055370;28;20028;-74
2022/06/11 01:52:03;;;;;;;10.45;5.25;;;19.40;99.90;;;;;;5058743;28;20033;-74
2022/06/11 01:54:50;;;;;;;9.90;5.07;;;19.40;99.90;;;;;;5046409;28;20373;-74
2022/06/11 01:57:25;;;;;;;8.35;4.68;;;19.40;99.90;;;;;;5055918;28;20051;-74
2022/06/11 01:59:50;;;;;;;12.05;6.22;;;19.30;99.90;;;;;;5054151;28;20051;-74
2022/06/11 02:02:31;;;;;;;7.43;5.28;;;19.30;99.90;;;;;;5048960;28;20578;-74
2022/06/11 02:05:19;;;;;;;10.82;6.20;;;19.30;99.90;;;;;;5057722;28;20052;-74
2022/06/11 02:08:09;;;;;;;12.48;6.70;;;19.30;99.90;;;;;;5048779;28;20048;-73
2022/06/11 02:10:44;;;;;;;7.43;5.55;;;19.30;99.90;;;;;;5057800;28;20029;-74
2022/06/11 02:13:26;;;;;;;9.82;5.43;;;19.30;99.90;;;;;;5052587;28;20116;-74
2022/06/11 02:16:13;;;;;;;11.55;5.95;;;19.30;99.90;;;;;;5050671;28;20111;-74
2022/06/11 02:18:41;;;;;;;11.30;6.22;;;19.20;99.90;;;;;;5051403;28;20028;-74
2022/06/11 02:21:15;;;;;;;9.90;4.78;;;19.20;99.90;;;;;;5053940;28;20469;-74
2022/06/11 02:23:49;;;;;;;11.38;6.03;;;19.20;99.90;;;;;;5049980;28;20021;-74
2022/06/11 02:26:23;;;;;;;10.45;5.68;;;19.20;99.90;;;;;;5052595;28;20492;-74
2022/06/11 02:28:51;;;;;;;11.48;5.65;;;19.20;99.90;;;;;;5053026;28;20032;-73
2022/06/11 02:31:23;;;;;;;10.88;5.75;;;19.20;99.90;;;;;;5053389;28;20029;-74
2022/06/11 02:33:49;;;;;;;8.32;5.80;;;19.10;99.90;;;;;;5046337;28;20599;-73
2022/06/11 02:36:24;;;;;;;10.18;5.80;;;19.10;99.90;;;;;;5050158;28;20029;-74
2022/06/11 02:38:50;;;;;;;9.32;5.78;;;19.00;99.90;;;;;;5055171;28;20389;-73
2022/06/11 02:41:24;;;;;;;14.35;6.30;;;19.10;99.90;;;;;;5052920;28;20021;-74
2022/06/11 02:43:49;;;;;;;9.45;5.50;;;19.10;99.90;;;;;;5052966;28;20123;-73
2022/06/11 02:49:00;;;;;;;11.60;5.97;;;19.10;99.90;;;;;;5055825;28;20144;-74
2022/06/11 02:51:28;;;;;;;7.78;5.40;;;19.10;99.90;;;;;;5048470;28;20132;-74
2022/06/11 02:53:54;;;;;;;9.13;5.15;;;19.10;99.90;;;;;;5053424;28;20029;-74
2022/06/11 02:56:20;;;;;;;7.70;5.40;;;19.10;99.90;;;;;;5054368;28;20037;-74
2022/06/11 02:58:46;;;;;;;7.55;5.72;;;19.10;99.90;;;;;;5054370;28;20025;-74
2022/06/11 03:01:13;;;;;;;11.40;5.50;;;19.10;99.90;;;;;;5053794;28;20029;-74
2022/06/11 03:03:39;;;;;;;7.68;5.68;;;19.10;99.90;;;;;;5055776;28;20078;-74
2022/06/11 03:06:05;;;;;;;8.90;5.88;;;19.10;99.90;;;;;;5053537;28;20506;-74
2022/06/11 03:08:32;;;;;;;11.30;5.78;;;19.10;99.90;;;;;;5049728;28;20086;-73
2022/06/11 03:10:58;;;;;;;10.93;5.93;;;19.10;99.90;;;;;;5051493;28;20057;-74
2022/06/11 03:13:25;;;;;;;11.13;5.95;;;19.20;99.90;;;;;;5051187;28;20048;-74
2022/06/11 03:15:52;;;;;;;12.63;7.00;;;19.20;99.90;;;;;;5053452;28;20556;-73
2022/06/11 03:18:18;;;;;;;9.63;6.38;;;19.20;99.90;;;;;;5056259;28;20081;-74
2022/06/11 03:20:44;;;;;;;11.10;6.85;;;19.20;99.90;;;;;;5047968;28;20063;-74
2022/06/11 03:23:10;;;;;;;8.50;5.93;;;19.20;99.90;;;;;;5050718;28;20509;-74
2022/06/11 03:25:36;;;;;;;10.10;6.13;;;19.20;99.90;;;;;;5053236;28;20044;-74
2022/06/11 03:28:16;;;;;;;7.70;5.50;;;19.20;99.90;;;;;;5052473;28;20017;-72
2022/06/11 03:30:43;;;;;;;9.65;6.20;;;19.20;99.90;;;;;;5047547;28;20065;-74
2022/06/11 03:33:08;;;;;;;11.48;5.68;;;19.20;99.90;;;;;;5051938;28;20021;-74
2022/06/11 03:35:35;;;;;;;12.43;6.30;;;19.30;99.90;;;;;;5052689;28;20444;-74
2022/06/11 03:38:01;;;;;;;8.73;5.60;;;19.20;99.90;;;;;;5044019;28;20022;-74
2022/06/11 03:40:27;;;;;;;8.05;5.18;;;19.20;99.90;;;;;;5050400;28;20444;-74
2022/06/11 03:42:53;;;;;;;10.18;5.03;;;19.20;99.90;;;;;;5046853;28;20071;-73
2022/06/11 03:45:19;;;;;;;12.85;4.88;;;19.20;99.90;;;;;;5055860;28;20392;-74
2022/06/11 03:47:45;;;;;;;7.30;5.00;;;19.30;99.90;;;;;;5048795;28;20110;-74
2022/06/11 03:50:22;;;;;;;10.20;4.72;;;19.30;99.90;;;;;;5053264;28;20044;-73
2022/06/11 03:52:47;;;;;;;8.13;5.50;;;19.20;99.90;;;;;;5050855;28;20029;-74
2022/06/11 03:55:13;;;;;;;8.68;6.10;;;19.20;99.90;;;;;;5054714;28;20392;-74
2022/06/11 03:57:39;;;;;;;8.13;5.05;;;19.20;99.90;;;;;;5049196;28;20029;-74
2022/06/11 04:00:09;;;;;;;9.10;5.32;;;19.30;99.90;;;;;;5046354;28;20053;-74
2022/06/11 04:02:34;;;;;;;9.68;5.50;;;19.20;99.90;;;;;;5056950;28;20028;-74
2022/06/11 04:05:00;;;;;;;10.55;5.70;;;19.30;99.90;;;;;;5043161;28;20083;-73
2022/06/11 04:07:26;;;;;;;11.82;5.80;;;19.30;99.90;;;;;;5048627;28;20116;-74
2022/06/11 04:09:51;;;;;;;8.43;5.47;;;19.30;99.90;;;;;;5055494;28;20025;-74
2022/06/11 04:12:18;;;;;;;8.05;5.15;;;19.30;99.90;;;;;;5054662;28;20040;-75
2022/06/11 04:14:46;;;;;;;9.52;4.60;;;19.30;99.90;;;;;;5057495;28;20033;-74
2022/06/11 04:17:20;;;;;;;9.13;5.25;;;19.30;99.90;;;;;;5049073;28;20064;-73
2022/06/11 04:19:49;;;;;;;10.70;6.50;;;19.40;99.90;;;;;;5058377;28;20025;-74
2022/06/11 04:22:15;;;;;;;9.20;4.93;;;19.30;99.90;;;;;;5052729;28;20489;-73
2022/06/11 04:24:41;;;;;;;6.05;4.65;;;19.30;99.90;;;;;;5059066;28;20380;-73
2022/06/11 04:27:09;;;;;;;6.78;4.85;;;19.30;99.90;;;;;;5049882;28;20031;-73
2022/06/11 04:29:39;;;;;;;8.50;4.97;;;19.40;99.90;;;;;;5058414;28;20020;-74
2022/06/11 04:32:07;;;;;;;6.65;4.10;;;19.40;99.90;;;;;;5058125;28;20056;-74
2022/06/11 04:34:33;;;;;;;6.03;4.28;;;19.40;99.90;;;;;;5046517;28;20009;-74
2022/06/11 04:36:59;;;;;;;9.77;5.05;;;19.50;99.90;;;;;;5056021;28;20432;-73
2022/06/11 04:39:28;;;;;;;7.05;4.10;;;19.50;99.90;;;;;;5048886;28;20100;-74
2022/06/11 04:41:54;;;;;;;9.13;5.25;;;19.50;99.90;;;;;;5053868;28;20059;-74
2022/06/11 04:44:20;;;;;;;11.98;4.80;;;19.50;99.90;;;;;;5058249;28;20500;-74
2022/06/11 04:46:46;;;;;;;5.80;4.25;;;19.50;99.90;;;;;;5053824;28;20112;-74
2022/06/11 04:49:12;;;;;;;5.25;3.72;;;19.50;99.90;;;;;;5055184;28;20025;-74
2022/06/11 04:51:39;;;;;;;7.53;4.03;;;19.50;99.90;;;;;;5049684;28;20407;-73
2022/06/11 04:54:05;;;;;;;8.05;3.88;;;19.60;99.90;;;;;;5057294;28;20573;-74
2022/06/11 04:56:31;;;;;;;9.95;4.82;;;19.60;99.90;;;;;;5052828;28;20473;-74
2022/06/11 04:58:57;;;;;;;9.82;3.78;;;19.60;99.90;;;;;;5058475;28;20029;-73
2022/06/11 05:01:23;;;;;;;7.25;4.00;;;19.60;99.90;;;;;;5048412;28;20482;-74
2022/06/11 05:03:49;;;;;;;5.15;3.65;;;19.60;99.90;;;;;;5056891;28;20489;-73
2022/06/11 05:06:18;;;;;;;6.47;3.55;;;19.60;99.90;;;;;;5053876;28;20025;-74
2022/06/11 05:08:44;;;;;;;10.43;3.92;;;19.60;99.90;;;;;;5049399;28;20074;-74
2022/06/11 05:11:10;;;;;;;5.68;3.58;;;19.60;99.90;;;;;;5056977;28;20037;-74
2022/06/11 05:13:37;;;;;;;8.35;3.70;;;19.60;99.90;;;;;;5053713;28;20032;-73
2022/06/11 05:16:03;;;;;;;8.00;4.10;;;19.60;99.90;;;;;;5056361;28;20400;-74
2022/06/11 05:18:30;;;;;;;11.10;4.03;;;19.60;99.90;;;;;;5049799;28;20036;-74
2022/06/11 05:20:56;;;;;;;9.18;3.58;;;19.60;99.90;;;;;;5057499;28;20039;-74
2022/06/11 05:23:22;;;;;;;8.45;3.97;;;19.70;99.90;;;;;;5049066;28;20025;-74
2022/06/11 05:25:48;;;;;;;9.10;3.00;;;19.70;99.90;;;;;;5058211;28;20111;-74
2022/06/11 05:28:22;;;;;;;6.43;3.72;;;19.70;99.90;;;;;;5046079;28;20116;-74
2022/06/11 05:30:49;;;;;;;7.40;3.53;;;19.70;99.90;;;;;;5060360;28;20047;-74
2022/06/11 05:33:16;;;;;;;6.72;3.95;;;19.80;99.90;;;;;;5045835;28;20436;-74
2022/06/11 05:35:42;;;;;;;4.68;3.22;;;19.80;99.90;;;;;;5055074;28;20139;-73
2022/06/11 05:38:13;;;;;;;7.18;3.30;;;19.80;99.90;;;;;;5055411;28;20021;-74
2022/06/11 05:40:41;;;;;;;6.15;2.92;;;19.90;99.90;;;;;;5057450;28;20547;-73
2022/06/11 05:43:07;;;;;;;7.50;3.95;;;19.80;99.90;;;;;;5061452;28;20111;-74
2022/06/11 05:45:55;;;;;;;7.68;2.70;;;19.80;99.90;;;;;;5059394;28;20044;-74
2022/06/11 05:48:26;;;;;;;7.63;3.03;;;19.80;99.90;;;;;;5051009;28;20108;-75
2022/06/11 05:50:54;;;;;;;6.32;3.13;;;19.80;99.90;;;;;;5054288;28;20029;-74
2022/06/11 05:53:22;;;;;;;4.30;2.90;;;19.70;99.90;;;;;;5045529;28;20452;-74
2022/06/11 05:55:49;;;;;;;7.72;2.55;;;19.80;99.90;;;;;;5046251;28;20028;-74
2022/06/11 05:58:20;;;;;;;6.75;2.40;;;19.90;99.90;;;;;;5043187;28;20025;-74
2022/06/11 06:00:47;;;;;;;5.13;2.67;;;19.90;99.90;;;;;;5049537;28;20025;-74
2022/06/11 06:03:12;;;;;;;7.03;2.63;;;20.00;99.90;;;;;;5031294;28;20470;-74
2022/06/11 06:05:39;;;;;;;6.07;2.50;;;20.00;99.90;;;;;;5032533;28;20036;-73
2022/06/11 06:08:06;;;;;;;7.93;2.83;;;20.10;99.90;;;;;;5037114;28;20023;-74
2022/06/11 06:10:32;;;;;;;6.18;2.70;;;20.00;99.90;;;;;;5042232;28;20041;-74
2022/06/11 06:12:57;;;;;;;7.72;2.45;;;20.00;99.90;;;;;;5035838;28;20191;-74
2022/06/11 06:15:27;;;;;;;5.03;2.20;;;20.00;99.90;;;;;;5038773;28;20041;-74
2022/06/11 06:17:54;;;;;;;7.00;2.35;;;20.00;99.90;;;;;;5052698;28;20025;-75
2022/06/11 06:20:22;;;;;;;4.95;2.00;;;20.10;99.90;;;;;;5038359;28;20014;-75
2022/06/11 06:22:48;;;;;;;5.13;2.53;;;20.20;99.90;;;;;;5043977;28;20033;-75
2022/06/11 06:25:17;;;;;;;7.75;2.80;;;20.20;99.90;;;;;;5047317;28;20032;-76
2022/06/11 06:27:43;;;;;;;5.85;1.98;;;20.10;99.90;;;;;;5046592;28;20021;-75
2022/06/11 06:30:09;;;;;;;10.00;2.75;;;20.00;99.90;;;;;;5051336;28;20036;-74
2022/06/11 06:32:35;;;;;;;5.82;2.53;;;19.90;99.90;;;;;;5054962;28;20026;-76
2022/06/11 06:35:01;;;;;;;9.95;2.65;;;19.90;99.90;;;;;;5054548;28;20021;-75
2022/06/11 06:37:26;;;;;;;5.40;2.35;;;19.90;99.90;;;;;;5055585;28;20078;-75
2022/06/11 06:39:52;;;;;;;5.80;1.90;;;20.00;99.90;;;;;;5058707;28;20028;-75
2022/06/11 06:42:18;;;;;;;5.45;2.15;;;20.00;99.90;;;;;;5075184;28;20113;-75
2022/06/11 06:44:44;;;;;;;11.10;2.58;;;20.00;99.90;;;;;;5060719;28;20060;-75
2022/06/11 06:47:09;;;;;;;6.40;2.45;;;20.00;99.90;;;;;;5055254;28;20076;-75
2022/06/11 06:49:35;;;;;;;7.63;2.55;;;20.00;99.90;;;;;;5054195;28;20025;-75
2022/06/11 06:52:01;;;;;;;5.68;1.80;;;20.10;99.90;;;;;;5054924;28;20489;-76
2022/06/11 06:54:27;;;;;;;5.18;2.05;;;20.20;99.90;;;;;;5060408;28;20033;-76
2022/06/11 06:56:52;;;;;;;9.00;2.28;;;20.20;99.90;;;;;;5054868;28;20021;-75
2022/06/11 06:59:18;;;;;;;6.90;2.40;;;20.30;99.90;;;;;;5054607;28;20021;-75
2022/06/11 07:01:44;;;;;;;7.55;2.40;;;20.40;99.90;;;;;;5045770;28;20029;-76
2022/06/11 07:04:11;;;;;;;7.55;2.20;;;20.40;99.90;;;;;;5044941;28;20348;-76
2022/06/11 07:06:37;;;;;;;7.65;2.00;;;20.30;99.90;;;;;;5051368;28;20036;-76
2022/06/11 07:09:03;;;;;;;9.30;2.28;;;20.30;99.90;;;;;;5053156;28;20021;-75
2022/06/11 07:11:29;;;;;;;5.53;2.25;;;20.20;99.90;;;;;;5053126;28;20108;-77
2022/06/11 07:13:55;;;;;;;7.47;2.28;;;20.10;99.90;;;;;;5053575;28;20108;-76
2022/06/11 07:16:27;;;;;;;5.97;2.30;;;20.10;99.90;;;;;;5054457;28;20025;-75
2022/06/11 07:18:56;;;;;;;7.10;2.15;;;20.10;99.90;;;;;;5054202;28;20022;-76
2022/06/11 07:21:32;;;;;;;6.68;1.77;;;20.10;99.90;;;;;;5054759;28;20021;-76
2022/06/11 07:24:01;;;;;;;7.88;2.25;;;20.20;99.90;;;;;;5047475;28;20520;-76
2022/06/11 07:26:33;;;;;;;11.95;2.53;;;20.20;99.90;;;;;;5062932;28;20028;-75
2022/06/11 07:29:03;;;;;;;7.97;2.40;;;20.20;99.90;;;;;;5059399;28;20029;-76
2022/06/11 07:31:30;;;;;;;9.52;2.47;;;20.30;99.90;;;;;;5054365;28;20531;-75
2022/06/11 07:33:57;;;;;;;9.63;2.67;;;20.40;99.90;;;;;;5051483;28;20029;-76
2022/06/11 07:36:23;;;;;;;9.85;3.03;;;20.30;99.90;;;;;;5034318;28;20080;-76
2022/06/11 07:38:49;;;;;;;9.27;2.97;;;20.40;99.90;;;;;;5034609;28;20033;-76
2022/06/11 07:41:14;;;;;;;13.05;3.05;;;20.40;99.90;;;;;;5034449;28;20068;-76
2022/06/11 07:43:40;;;;;;;10.60;2.55;;;20.40;99.90;;;;;;5034254;28;20029;-76
2022/06/11 07:46:06;;;;;;;9.75;2.88;;;20.30;99.90;;;;;;5034355;28;20029;-76
2022/06/11 07:48:32;;;;;;;12.20;2.67;;;20.30;99.90;;;;;;5045565;28;20489;-76
2022/06/11 07:50:58;;;;;;;14.40;3.05;;;20.30;99.90;;;;;;5052366;28;20466;-76
2022/06/11 07:53:24;;;;;;;15.70;3.25;;;20.40;99.90;;;;;;5053740;28;20024;-76
2022/06/11 07:55:51;;;;;;;12.15;2.95;;;20.40;99.90;;;;;;5054081;28;20405;-75
2022/06/11 07:58:20;;;;;;;9.38;2.60;;;20.50;99.90;;;;;;5053957;28;20049;-76
2022/06/11 08:00:49;;;;;;;14.68;3.47;;;20.50;99.90;;;;;;5053964;28;20020;-76
2022/06/11 08:03:15;;;;;;;11.88;3.00;;;20.50;99.90;;;;;;5054119;28;20040;-77
2022/06/11 08:05:41;;;;;;;9.15;2.63;;;20.60;99.90;;;;;;5053756;28;20029;-75
2022/06/11 08:08:08;;;;;;;8.52;2.90;;;20.70;99.90;;;;;;5053480;28;20033;-76
2022/06/11 08:10:35;;;;;;;11.68;2.50;;;20.70;99.90;;;;;;5051649;28;20111;-76
2022/06/11 08:13:02;;;;;;;13.20;3.10;;;20.80;99.90;;;;;;5052691;28;20367;-76
2022/06/11 08:15:27;;;;;;;9.93;2.97;;;20.80;99.90;;;;;;5052431;28;20052;-76
2022/06/11 08:17:53;;;;;;;13.18;2.97;;;20.70;99.90;;;;;;5053603;28;20110;-74
2022/06/11 08:20:23;;;;;;;14.35;2.42;;;20.90;99.90;;;;;;5051183;28;20453;-75
2022/06/11 08:22:49;;;;;;;11.07;3.13;;;20.90;99.90;;;;;;5041063;28;20099;-75
2022/06/11 08:25:15;;;;;;;9.95;2.33;;;20.90;99.90;;;;;;5053102;28;20024;-75
2022/06/11 08:27:40;;;;;;;11.93;3.10;;;20.90;99.90;;;;;;5041329;28;20391;-76
2022/06/11 08:30:07;;;;;;;10.95;2.80;;;20.80;99.90;;;;;;5036384;28;20060;-76
2022/06/11 08:32:32;;;;;;;17.35;3.17;;;20.80;99.90;;;;;;5053010;28;20047;-76
2022/06/11 08:34:58;;;;;;;13.48;3.15;;;21.00;99.90;;;;;;5052707;28;20658;-75
2022/06/11 08:37:24;;;;;;;13.30;3.38;;;21.10;99.90;;;;;;5050539;28;20434;-76
2022/06/11 08:39:50;;;;;;;9.75;2.95;;;21.00;99.90;;;;;;5048298;28;20028;-75
2022/06/11 08:42:36;;;;;;;13.93;3.17;;;21.00;99.90;;;;;;5051553;28;20482;-76
2022/06/11 08:45:26;;;;;;;14.98;3.25;;;21.10;99.90;;;;;;5032924;28;20029;-76
2022/06/11 08:47:57;;;;;;;14.40;3.28;;;21.20;99.90;;;;;;5057280;28;20032;-76
2022/06/11 08:50:51;;;;;;;10.63;3.05;;;21.30;99.90;;;;;;5063665;28;20021;-76
2022/06/11 08:53:17;;;;;;;11.27;2.58;;;21.30;99.90;;;;;;5048802;28;20033;-76
2022/06/11 08:55:43;;;;;;;14.48;3.70;;;21.60;99.90;;;;;;5045094;28;20033;-76
2022/06/11 08:58:21;;;;;;;11.70;3.28;;;21.60;99.90;;;;;;5052799;28;20067;-76
2022/06/11 09:01:21;;;;;;;7.63;2.80;;;21.60;99.90;;;;;;5050407;28;20493;-77
2022/06/11 09:04:26;;;;;;;13.57;3.30;;;21.50;99.90;;;;;;5039729;28;20048;-76
2022/06/11 09:07:19;;;;;;;12.15;3.00;;;21.70;99.90;;;;;;5032710;28;20539;-76
2022/06/11 09:10:02;;;;;;;16.75;4.13;;;22.00;99.90;;;;;;5041850;28;20489;-77
2022/06/11 09:12:27;;;;;;;13.48;3.35;;;22.40;99.90;;;;;;5052942;28;20036;-77
2022/06/11 09:15:27;;;;;;;19.25;3.90;;;22.40;99.90;;;;;;5049103;28;20044;-77
2022/06/11 09:18:24;;;;;;;14.75;3.33;;;22.10;99.90;;;;;;5052329;28;20067;-77
2022/06/11 09:20:50;;;;;;;12.52;2.83;;;22.10;99.90;;;;;;5051987;28;20037;-77
2022/06/11 09:23:24;;;;;;;13.80;3.45;;;22.20;99.90;;;;;;5056771;28;20068;-75
2022/06/11 09:25:55;;;;;;;15.18;3.58;;;22.20;99.90;;;;;;5042829;28;20033;-77
2022/06/11 09:28:49;;;;;;;11.73;3.30;;;22.10;99.90;;;;;;5032953;28;20022;-76
2022/06/11 09:31:26;;;;;;;11.95;3.50;;;21.90;99.90;;;;;;5032238;28;20099;-74
2022/06/11 09:33:59;;;;;;;16.80;3.20;;;22.10;99.90;;;;;;5032449;28;20579;-77
2022/06/11 09:36:45;;;;;;;13.80;3.33;;;22.30;99.90;;;;;;5032960;28;20029;-78
2022/06/11 09:39:23;;;;;;;15.82;3.45;;;22.40;99.90;;;;;;5035054;28;20038;-77
2022/06/11 09:42:17;;;;;;;9.55;2.42;;;22.30;99.90;;;;;;5054846;28;20037;-77
2022/06/11 09:44:57;;;;;;;14.35;3.03;;;22.50;99.90;;;;;;5054674;28;20037;-76
2022/06/11 09:47:37;;;;;;;12.15;3.47;;;22.90;99.90;;;;;;5040347;28;20082;-76
2022/06/11 09:50:23;;;;;;;12.68;3.20;;;23.00;99.90;;;;;;5056255;28;20028;-77
2022/06/11 09:53:03;;;;;;;12.98;3.58;;;23.10;99.90;;;;;;5054795;28;20040;-77
2022/06/11 09:55:40;;;;;;;13.45;3.05;;;23.40;99.90;;;;;;5055355;28;20480;-75
2022/06/11 09:58:43;;;;;;;14.88;3.00;;;23.50;99.90;;;;;;5049337;28;20024;-77
2022/06/11 10:01:19;;;;;;;10.07;3.15;;;23.70;99.90;;;;;;5040727;28;20029;-76
2022/06/11 10:03:55;;;;;;;13.23;3.75;;;23.90;99.90;;;;;;5054699;28;20025;-79
2022/06/11 10:06:52;;;;;;;11.65;4.43;;;24.00;99.90;;;;;;5055721;28;20438;-77
2022/06/11 10:09:26;;;;;;;14.18;4.38;;;24.00;99.90;;;;;;5038403;28;20095;-76
2022/06/11 10:12:16;;;;;;;10.65;2.88;;;24.10;99.90;;;;;;5035719;28;20504;-77
2022/06/11 10:15:10;;;;;;;11.38;2.80;;;24.40;99.90;;;;;;5039959;28;20038;-75
2022/06/11 10:17:54;;;;;;;99.75;14.00;;;24.70;99.20;;;;;;5074209;28;20036;-76
2022/06/11 10:20:28;;;;;;;16.45;3.42;;;24.70;99.50;;;;;;5074662;28;20028;-73
2022/06/11 10:22:56;;;;;;;15.20;3.30;;;24.70;99.00;;;;;;5057449;28;20034;-77
2022/06/11 10:25:36;;;;;;;10.82;3.38;;;24.70;98.80;;;;;;5055331;28;20029;-77
2022/06/11 10:28:08;;;;;;;9.50;3.05;;;24.80;99.20;;;;;;5055662;28;20493;-77
2022/06/11 10:30:54;;;;;;;12.25;3.33;;;24.50;99.60;;;;;;5054112;28;20025;-76
2022/06/11 10:33:24;;;;;;;9.18;2.88;;;24.60;99.90;;;;;;5035429;28;20397;-73
2022/06/11 10:36:02;;;;;;;5.18;1.63;;;25.10;99.80;;;;;;5035713;28;20017;-77
2022/06/11 10:38:46;;;;;;;5.95;1.98;;;25.40;99.50;;;;;;5035666;28;20504;-77
2022/06/11 10:41:41;;;;;;;7.50;2.22;;;25.60;99.30;;;;;;5044385;28;20536;-77
2022/06/11 10:44:24;;;;;;;7.72;2.58;;;25.60;96.80;;;;;;5035624;28;20037;-76
2022/06/11 10:46:52;;;;;;;7.82;2.80;;;25.50;97.10;;;;;;5035311;28;20416;-77
2022/06/11 10:49:22;;;;;;;7.00;2.85;;;25.80;97.50;;;;;;5035644;28;20028;-77
2022/06/11 10:51:56;;;;;;;10.90;2.47;;;25.80;97.10;;;;;;5035148;28;20037;-77
2022/06/11 10:54:24;;;;;;;8.52;2.42;;;25.90;97.10;;;;;;5035729;28;20581;-77
2022/06/11 10:57:07;;;;;;;11.20;2.72;;;26.00;97.80;;;;;;5051672;28;20083;-77
2022/06/11 10:59:39;;;;;;;10.35;2.35;;;26.10;98.00;;;;;;5035221;28;20018;-77
2022/06/11 11:02:08;;;;;;;;;;;26.30;97.10;;;;;;5035157;28;20116;-77
2022/06/11 11:04:59;;;;;;;7.72;2.47;;;26.20;98.20;;;;;;5046736;28;19911;-77
2022/06/11 11:07:26;;;;;;;10.38;2.90;;;26.50;99.30;;;;;;5054998;28;20025;-77
2022/06/11 11:10:03;;;;;;;9.80;2.55;;;26.30;98.30;;;;;;5055010;28;20021;-78
2022/06/11 11:12:34;;;;;;;9.73;2.13;;;26.40;97.40;;;;;;5053567;28;20098;-76
2022/06/11 11:15:12;;;;;;;10.63;3.00;;;26.30;95.50;;;;;;5037000;28;20033;-79
2022/06/11 11:17:56;;;;;;;9.77;2.80;;;26.40;96.40;;;;;;5034807;28;20311;-77
2022/06/11 11:20:37;;;;;;;8.05;2.58;;;26.40;96.40;;;;;;5035020;28;20025;-79
2022/06/11 11:23:15;;;;;;;11.75;3.08;;;26.50;98.60;;;;;;5035034;28;20394;-77
2022/06/11 11:25:53;;;;;;;8.95;3.22;;;26.60;97.00;;;;;;5034681;28;20028;-78
2022/06/11 11:28:27;;;;;;;6.43;2.58;;;26.70;97.30;;;;;;5062957;28;20074;-78
2022/06/11 11:31:16;;;;;;;7.72;2.35;;;26.80;96.10;;;;;;5073164;28;20055;-79
2022/06/11 11:34:17;;;;;;;11.27;2.63;;;26.90;97.80;;;;;;5038110;28;20017;-77
2022/06/11 11:36:44;;;;;;;9.32;2.65;;;26.90;98.10;;;;;;5049984;28;20037;-78
2022/06/11 11:39:12;;;;;;;13.15;2.80;;;27.10;97.30;;;;;;5054669;28;20017;-77
2022/06/11 11:42:11;;;;;;;6.53;2.38;;;27.10;98.50;;;;;;5050399;28;20032;-77
2022/06/11 11:44:49;;;;;;;7.10;2.33;;;27.10;95.90;;;;;;5036559;28;20037;-78
2022/06/11 11:47:36;;;;;;;9.48;2.45;;;27.00;97.80;;;;;;5043594;28;20407;-76
2022/06/11 11:50:22;;;;;;;5.00;1.98;;;27.10;96.10;;;;;;5054084;28;20485;-78
2022/06/11 11:53:05;;;;;;;8.90;2.53;;;27.30;96.70;;;;;;5049181;28;20021;-77
2022/06/11 11:55:36;;;;;;;5.63;2.17;;;27.10;95.60;;;;;;5043918;28;20021;-77
2022/06/11 11:58:14;;;;;;;9.35;2.95;;;27.00;96.30;;;;;;5050721;28;20082;-78
2022/06/11 12:01:12;;;;;;;6.82;2.45;;;27.10;96.90;;;;;;5043886;28;20024;-78
2022/06/11 12:03:47;;;;;;;8.75;2.45;;;27.10;96.70;;;;;;5052572;28;20029;-77
2022/06/11 12:06:16;;;;;;;12.65;2.28;;;27.30;96.20;;;;;;5053482;28;20035;-77
2022/06/11 12:08:51;;;;;;;8.98;2.53;;;27.30;97.90;;;;;;5041163;28;20025;-79
2022/06/11 12:11:23;;;;;;;14.48;2.95;;;27.60;97.50;;;;;;5034577;28;20390;-77
2022/06/11 12:13:52;;;;;;;8.02;2.20;;;27.50;97.40;;;;;;5053634;28;20126;-79
2022/06/11 12:16:36;;;;;;;6.20;2.35;;;27.20;96.50;;;;;;5053083;28;20029;-77
2022/06/11 12:19:20;;;;;;;6.45;1.90;;;27.00;96.40;;;;;;5052490;28;20102;-77
2022/06/11 12:22:09;;;;;;;6.18;2.10;;;27.20;96.50;;;;;;5053076;28;20036;-78
2022/06/11 12:24:41;;;;;;;6.68;1.80;;;27.30;97.30;;;;;;5053337;28;20039;-77
2022/06/11 12:27:17;;;;;;;7.47;2.40;;;27.50;96.90;;;;;;5052359;28;20025;-75
2022/06/11 12:29:48;;;;;;;5.75;1.55;;;27.40;95.00;;;;;;5050680;28;20074;-76
2022/06/11 12:32:23;;;;;;;5.60;1.83;;;27.30;96.10;;;;;;5051340;28;20036;-78
2022/06/11 12:34:51;;;;;;;5.72;1.85;;;27.40;95.80;;;;;;5052356;28;20025;-79
2022/06/11 12:37:23;;;;;;;5.70;1.77;;;27.60;95.30;;;;;;5042248;28;20040;-80
2022/06/11 12:40:11;;;;;;;8.45;1.92;;;27.70;95.60;;;;;;5032367;28;20051;-76
2022/06/11 12:42:42;;;;;;;7.95;1.85;;;27.50;93.90;;;;;;5032104;28;20079;-86
2022/06/11 12:45:43;;;;;;;5.88;1.67;;;27.50;96.10;;;;;;5032167;28;20052;-83
2022/06/11 12:48:16;;;;;;;6.40;2.13;;;27.50;95.60;;;;;;5038457;28;20021;-87
2022/06/11 12:50:50;;;;;;;;;;;27.70;95.30;;;;;;5056726;28;20024;-89
2022/06/11 12:53:35;;;;;;;8.75;1.63;;;27.80;94.80;;;;;;5067270;28;19927;-87
2022/06/11 12:56:13;;;;;;;4.88;1.70;;;27.90;95.80;;;;;;5057557;28;20470;-82
2022/06/11 12:59:13;;;;;;;6.82;2.03;;;28.00;96.20;;;;;;5055772;28;20024;-89
2022/06/11 13:01:50;;;;;;;6.60;1.83;;;28.00;95.30;;;;;;5051236;28;20033;-79
2022/06/11 13:04:49;;;;;;;6.03;1.85;;;28.00;94.60;;;;;;5034183;28;20033;-81
2022/06/11 13:07:44;;;;;;;8.13;1.65;;;27.60;94.90;;;;;;5042288;28;20024;-86
2022/06/11 13:10:48;;;;;;;7.50;1.60;;;27.70;95.00;;;;;;5053400;28;20037;-84
2022/06/11 13:13:47;;;;;;;8.68;1.98;;;27.90;94.00;;;;;;5052190;28;20029;-85
2022/06/11 13:16:33;;;;;;;4.60;1.73;;;27.80;93.40;;;;;;5053715;28;20025;-86